Storm Chaser
Find the good and the bad weather around the PilotEdge service area.
If the airport ICAO is green, then the airport is likely to be VFR. If it is yellow, then instrument approaches are in use, and appropriate flight rules should be considered.
ICAO Wind Visibility Cloud Temperature Dew Point METAR
KABQ * 20007KT 10SM SCT120 BKN140 21 15 KABQ 210452Z 20007KT 10SM SCT120 BKN140 21/15 A3034 RMK AO2 SLP189 T02110150 $
KAMA 05010KT 10SM CLR 24 17 KAMA 210453Z AUTO 05010KT 10SM CLR 24/17 A3017 RMK AO2 SLP158 T02440172 $
KAPA 24011KT 10SM BKN090 BKN110 14 13 KAPA 210524Z 24011KT 10SM BKN090 BKN110 14/13 A3041 RMK AO2 WSHFT 0504 RAE21 P0001 T01440133
KASE 20005KT 10SM CLR 14 04 KASE 210453Z AUTO 20005KT 10SM CLR 14/04 A3040 RMK AO2 SLP169 T01440039
KBFI VRB03KT 10SM CLR 23 13 KBFI 210453Z VRB03KT 10SM CLR 23/13 A3002 RMK AO2 SLP164 T02330128 $
KBFL 32009KT 10SM CLR 33 09 KBFL 210454Z 32009KT 10SM CLR 33/09 A2983 RMK AO2 SLP094 T03280094
KBIL 20003KT 10SM FEW110 SCT220 26 08 KBIL 210453Z 20003KT 10SM FEW110 SCT220 26/08 A3028 RMK AO2 SLP213 T02560083 $
KBOI * 19003KT 10SM CLR 29 14 KBOI 210453Z 19003KT 10SM CLR 29/14 A3000 RMK AO2 SLP122 T02890139
KBUR * 12006KT 10SM CLR 26 15 KBUR 210453Z 12006KT 10SM CLR 26/15 A2989 RMK AO2 SLP107 T02560150
KBZN 00000KT 10SM CLR 21 07 KBZN 210456Z 00000KT 10SM CLR 21/07 A3030 RMK AO2 SLP213 T02060072
KCMA 28005KT 6SM CLR 19 17 KCMA 210455Z 28005KT 6SM BR CLR 19/17 A2989 RMK AO2 SLP129 T01940172
KCOS 03010KT 3SM FEW015 OVC030CB 14 13 KCOS 210526Z 03010KT 3SM TSRA BR FEW015 OVC030CB 14/13 A3049 RMK AO2 PK WND 01028/0513 FRQ LTGICCG OHD TS OHD MOV S P0077 T01390128 $
KCPR 26007KT 10SM CLR 15 09 KCPR 210453Z AUTO 26007KT 10SM CLR 15/09 A3036 RMK AO2 SLP219 T01500094
KCRQ 23003KT 10SM CLR 19 17 KCRQ 210453Z 23003KT 10SM CLR 19/17 A2990 RMK AO2 SLP124 T01940172
KDEN * 30009KT 10SM FEW070 SCT100 OVC140 17 16 KDEN 210453Z 30009KT 10SM FEW070 SCT100 OVC140 17/16 A3039 RMK AO2 RAE16 SLP217 P0004 T01720161 $
KEGE 30003KT 10SM CLR 20 03 KEGE 210456Z AUTO 30003KT 10SM CLR 20/03 A3036 RMK AO2 SLP171 T02000033 PNO $
KELP * 33016KT 10SM SCT090 BKN150 OVC250 26 16 KELP 210551Z 33016KT 10SM -RA SCT090 BKN150 OVC250 26/16 A3014 RMK AO2 RAB44 SLP124 P0000 60000 T02610161 10350 20261 51021 $
KEMT 20011KT 10SM CLR 33 14 KEMT 202350Z 20011KT 10SM CLR 33/14 A2986
KEUG 17004KT 10SM SCT070 24 15 KEUG 210454Z 17004KT 10SM SCT070 24/15 A2999 RMK AO2 SLP153 T02390150
KFAT 30012KT 10SM BKN120 BKN200 BKN120 33 16 KFAT 210453Z 30012KT 10SM BKN120 BKN200 33/16 A2983 RMK AO2 SLP098 FU BKN120 T03330161 $
KFLG 00000KT 10SM FEW120 20 09 KFLG 210457Z AUTO 00000KT 10SM FEW120 20/09 A3036 RMK AO2 SLP151 T02000089
KFMN 10006KT 10SM CLR 23 10 KFMN 210453Z AUTO 10006KT 10SM CLR 23/10 A3026 RMK AO2 SLP180 T02280100
KFUL 27003KT 10SM CLR 24 14 KFUL 210453Z AUTO 27003KT 10SM CLR 24/14 A2988 RMK AO2 SLP116 T02440139
KGCN 00000KT 10SM BKN110 23 09 KGCN 210454Z AUTO 00000KT 10SM BKN110 23/09 A3033 RMK AO2 SLP140 T02280089
KGEG 02004KT 10SM CLR 32 07 KGEG 210453Z 02004KT 10SM CLR 32/07 A3006 RMK AO2 SLP152 T03170072
KGJT 04008G23KT 260V200 CLR 29 03 KGJT 210453Z AUTO 04008G23KT 260V200 10SM CLR 29/03 A3016 RMK AO2 PK WND 03039/0431 PRESRR SLP126 T02940028
KHLN 31003KT 10SM CLR 25 09 KHLN 210453Z AUTO 31003KT 10SM CLR 25/09 A3025 RMK AO2 SLP216 T02500094
KHND 04009G18KT 10SM CLR 38 10 KHND 210531Z AUTO 04009G18KT 10SM CLR 38/10 A2994 RMK AO2 WSHFT 0511
KIFP 17007KT 10SM CLR 43 06 KIFP 210535Z AUTO 17007KT 10SM CLR 43/06 A2971 RMK AO2
KINS 29004KT 10SM FEW150 36 06 KINS 210455Z AUTO 29004KT 10SM FEW150 36/06 A2997 RMK AO2 SLP084 T03550058 $
KJAC 01010KT 10SM CLR 18 06 KJAC 210456Z AUTO 01010KT 10SM CLR 18/06 A3041 RMK AO2 SLP237 T01780061
KLAS * 02020G30KT 10SM FEW120 41 08 KLAS 210505Z 02020G30KT 10SM FEW120 41/08 A2987 RMK AO2 PK WND 04030/0500 T04060083 $
KLAX * 25006KT 10SM FEW006 FEW170 19 16 KLAX 210453Z 25006KT 10SM FEW006 FEW170 19/16 A2989 RMK AO2 SLP118 T01890161 $
KLGB 32006KT 10SM CLR 22 16 KLGB 210453Z 32006KT 10SM CLR 22/16 A2989 RMK AO2 SLP120 T02220156
KLSV 04029G34KT 10SM CLR 40 06 KLSV 210455Z AUTO 04029G34KT 10SM CLR 40/06 A2981 RMK AO2 PK WND 04034/52 SLP059 T04000063 $
KMFR 33005KT 9SM CLR 28 13 KMFR 210453Z AUTO 33005KT 9SM CLR 28/13 A2995 RMK AO2 SLP129 T02780128
KMRY 26006KT 10SM OVC007 14 12 KMRY 210454Z AUTO 26006KT 10SM OVC007 14/12 A3004 RMK AO2 SLP184 T01390122
KMYF 25003KT 10SM CLR 22 17 KMYF 210453Z 25003KT 10SM CLR 22/17 A2992 RMK AO2 SLP126 T02170172
KOAK * COR 28016G27KT FEW007 FEW009 SCT015 16 14 KOAK 210453Z COR 28016G27KT 10SM FEW007 FEW009 SCT015 16/14 A2997 RMK AO2 PK WND 30027/0453 SLP148 T01560139
KOLM 03004KT 10SM CLR 25 13 KOLM 210454Z AUTO 03004KT 10SM CLR 25/13 A3002 RMK AO2 SLP165 T02500128 $
KONT * 24006KT 10SM CLR 28 07 KONT 210453Z 24006KT 10SM CLR 28/07 A2991 RMK AO2 SLP106 T02780067
KOTH 34006KT 3SM OVC004 KOTH 210552Z AUTO 34006KT 3SM BR OVC004 A3013 RMK AO2 RAB30E39UPB39E49 P0000 FZRANO $
KOXR 29006KT 7SM CLR 17 16 KOXR 210551Z AUTO 29006KT 7SM CLR 17/16 A2989 RMK AO2 SLP119 T01720156 10217 20167 50002 $
KPAE 35009G19KT 10SM CLR 18 13 KPAE 210453Z AUTO 35009G19KT 10SM CLR 18/13 A3006 RMK AO2 SLP176 T01780128
KPDX * 32007KT 10SM SCT060 SCT060 27 15 KPDX 210453Z 32007KT 10SM SCT060 27/15 A2996 RMK AO2 SLP144 FU SCT060 T02720150 $
KPHX * 14020G30KT 10SM FEW018 FEW090 SCT160 SCT250 FEW018 34 17 KPHX 210551Z 14020G30KT 10SM FEW018 FEW090 SCT160 SCT250 34/17 A2988 RMK AO2 PK WND 17040/0455 SLP093 OCNL LTGIC NE AND SE-S BLDU FEW018 CB DSNT NE AND SE-S T03390172 10450 20339 53043
KPRC 15008KT 10SM BKN110 29 11 KPRC 210453Z AUTO 15008KT 10SM BKN110 29/11 A3019 RMK AO2 RAB28E41 SLP119 P0000 T02890111
KPSP 32015KT 10SM CLR 40 08 KPSP 210453Z AUTO 32015KT 10SM CLR 40/08 A2976 RMK AO2 SLP069 T04000078 $
KRDD 18005KT 10SM CLR 34 14 KRDD 210453Z 18005KT 10SM CLR 34/14 A2981 RMK AO2 SLP085 T03390139
KRNM 00000KT 10SM CLR 23 14 KRNM 210453Z AUTO 00000KT 10SM CLR 23/14 A2994 RMK AO2 SLP118 T02280144 $
KRNO * 14011KT 10SM BKN080 28 09 KRNO 210455Z 14011KT 10SM BKN080 28/09 A3013 RMK AO2 PK WND 18028/0406 SLP133 T02830089
KSAC 18005KT 10SM CLR 24 13 KSAC 210453Z AUTO 18005KT 10SM CLR 24/13 A2984 RMK AO2 SLP103 T02440128
KSAN * 29003KT 10SM FEW008 SCT180 21 18 KSAN 210551Z 29003KT 10SM FEW008 SCT180 21/18 A2993 RMK AO2 SLP134 T02060183 10244 20206 51010 $
KSBA 08005KT 7SM CLR 18 16 KSBA 210453Z 08005KT 7SM CLR 18/16 A2987 RMK AO2 SLP116 T01780156 $
KSBD 26004KT 10SM CLR 28 10 KSBD 210540Z AUTO 26004KT 10SM CLR 28/10 A2992 RMK AO2 T02770100
KSBP 31007KT 10SM BKN006 16 12 KSBP 210456Z AUTO 31007KT 10SM BKN006 16/12 A2997 RMK AO2 SLP147 T01560122
KSDM 00000KT 10SM CLR 20 17 KSDM 210453Z AUTO 00000KT 10SM CLR 20/17 A2992 RMK AO2 SLP127 T02000172
KSEA * 36009KT 10SM CLR 23 12 KSEA 210453Z 36009KT 10SM CLR 23/12 A3003 RMK AO2 SLP172 T02330117
KSEE 31004KT 10SM CLR 23 17 KSEE 210535Z AUTO 31004KT 10SM CLR 23/17 A2991 RMK AO2
KSFO * 29019G26KT 10SM FEW003 BKN010 14 12 KSFO 210456Z 29019G26KT 10SM FEW003 BKN010 14/12 A2997 RMK AO2 PK WND 28028/0416 SLP149 T01390122 $
KSJC * 32008KT 10SM CLR 19 13 KSJC 210453Z 32008KT 10SM CLR 19/13 A2997 RMK AO2 SLP149 T01940133
KSLC * 12010G19KT 10SM FEW130 31 06 KSLC 210454Z 12010G19KT 10SM FEW130 31/06 A3011 RMK AO2 SLP126 FU ALFT T03110056 $
KSMF * 15010KT 10SM CLR 27 14 KSMF 210453Z 15010KT 10SM CLR 27/14 A2981 RMK AO2 SLP094 T02720139 $
KSMO 15003KT 10SM CLR 19 17 KSMO 210551Z AUTO 15003KT 10SM CLR 19/17 A2990 RMK AO2 SLP122 T01890167 10228 20189 53008
KSMX 00000KT 5SM OVC003 13 13 KSMX 210551Z AUTO 00000KT 5SM BR OVC003 13/13 A2998 RMK AO2 SLP153 T01330133 10200 20133 50005 $
KSNA * 21006KT 8SM FEW015 21 17 KSNA 210453Z 21006KT 8SM FEW015 21/17 A2989 RMK AO2 SLP120 T02110167 $
KSUN 36003KT 10SM CLR 20 08 KSUN 210535Z AUTO 36003KT 10SM CLR 20/08 A3027 RMK AO2
KTOA 28014G19KT 10SM FEW008 FEW200 23 16 KTOA 202348Z 28014G19KT 10SM FEW008 FEW200 23/16 A2988
KTUS 08009G18KT 10SM OVC110 28 17 KTUS 210453Z 08009G18KT 10SM OVC110 28/17 A3010 RMK AO2 LTG DSNT N AND NW RAE00B16E27 SLP137 P0000 T02830172
KVCV 22007KT 10SM CLR 30 01 KVCV 210535Z AUTO 22007KT 10SM CLR 30/01 A3003 RMK AO2
KVGT 04008KT 10SM CLR 41 09 KVGT 210453Z AUTO 04008KT 10SM CLR 41/09 A2987 RMK AO2 SLP093 T04060089
KVNY * 13004KT 10SM CLR 27 13 KVNY 210551Z AUTO 13004KT 10SM CLR 27/13 A2988 RMK AO2 SLP106 T02720128 10383 20272 51007 $
KWHP 12007G14KT 10SM SKC 38 00 KWHP 202255Z 12007G14KT 10SM SKC 38/00 A2991
KWJF 24010KT 10SM CLR 31 04 KWJF 210456Z AUTO 24010KT 10SM CLR 31/04 A2997 RMK AO2 SLP121 T03060039
KYKM 26005KT 10SM CLR 24 14 KYKM 210453Z 26005KT 10SM CLR 24/14 A2997 RMK AO2 SLP140 T02440144
KNYL 18008KT 10SM CLR 35 18 KNYL 210457Z AUTO 18008KT 10SM CLR 35/18 A2975 RMK AO2 SLP071 T03500183 $
KGPI 25004KT 10SM CLR 22 11 KGPI 210455Z 25004KT 10SM CLR 22/11 A3015 RMK AO2 SLP187 T02220111
* Indicates D ATIS Available.